Time;durP1;ratioP1;P1;durP2;ratioP2;P2;SDS_P1;SDS_P2;PMS_P1;PMS_P2;Temp;Humidity;BMP_temperature;BMP_pressure;BME280_temperature;BME280_humidity;BME280_pressure;Samples;Min_cycle;Max_cycle;Signal;HPM_P1;HPM_P2
2022/05/29 00:00:53;;;;;;;17.27;2.97;;;10.20;99.90;;;;;;6222127;28;20376;-72
2022/05/29 00:03:54;;;;;;;13.73;2.80;;;10.10;99.90;;;;;;6217346;28;20048;-73
2022/05/29 00:06:59;;;;;;;15.68;3.42;;;10.10;99.90;;;;;;6224359;28;20157;-73
2022/05/29 00:10:05;;;;;;;19.90;3.88;;;10.00;99.90;;;;;;6220554;28;20125;-73
2022/05/29 00:13:07;;;;;;;16.00;3.40;;;10.00;99.90;;;;;;6213257;28;20144;-73
2022/05/29 00:16:12;;;;;;;19.48;3.60;;;10.00;99.90;;;;;;6223085;28;20499;-73
2022/05/29 00:19:14;;;;;;;16.90;3.47;;;10.00;99.90;;;;;;6224164;28;20180;-72
2022/05/29 00:22:23;;;;;;;17.15;3.58;;;9.90;99.90;;;;;;6224481;28;20050;-73
2022/05/29 00:25:25;;;;;;;13.88;2.97;;;9.90;99.90;;;;;;6221520;28;20053;-73
2022/05/29 00:28:27;;;;;;;17.02;3.50;;;9.90;99.90;;;;;;6222982;28;20125;-73
2022/05/29 00:31:29;;;;;;;19.10;3.92;;;9.90;99.90;;;;;;6223986;28;20181;-73
2022/05/29 00:34:30;;;;;;;21.08;3.72;;;10.00;99.90;;;;;;6220861;28;20056;-73
2022/05/29 00:37:37;;;;;;;17.85;4.00;;;10.00;99.90;;;;;;6223951;28;20041;-73
2022/05/29 00:40:46;;;;;;;20.35;3.75;;;10.00;99.90;;;;;;6223021;28;20197;-73
2022/05/29 00:44:07;;;;;;;21.90;3.97;;;9.90;99.90;;;;;;6221481;28;20041;-73
2022/05/29 00:47:14;;;;;;;19.27;4.18;;;9.90;99.90;;;;;;6221629;28;20185;-73
2022/05/29 00:50:19;;;;;;;16.35;4.18;;;9.90;99.90;;;;;;6222911;28;20057;-72
2022/05/29 00:53:23;;;;;;;18.75;3.90;;;9.90;99.90;;;;;;6220698;28;20049;-73
2022/05/29 00:56:25;;;;;;;15.82;4.22;;;9.90;99.90;;;;;;6220819;28;20145;-73
2022/05/29 00:59:30;;;;;;;15.10;3.33;;;9.90;99.90;;;;;;6221755;28;20089;-73
2022/05/29 01:02:32;;;;;;;14.23;3.17;;;10.00;99.90;;;;;;6222518;28;20042;-73
2022/05/29 01:05:36;;;;;;;16.75;3.50;;;10.10;99.90;;;;;;6221511;28;20514;-73
2022/05/29 01:08:39;;;;;;;17.23;3.72;;;10.20;99.90;;;;;;6211067;28;20155;-72
2022/05/29 01:11:49;;;;;;;;;;;10.20;99.90;;;;;;6220289;28;20050;-73
2022/05/29 01:15:00;;;;;;;11.40;3.30;;;10.20;99.90;;;;;;6219312;28;20063;-72
2022/05/29 01:18:14;;;;;;;13.30;3.53;;;10.10;99.90;;;;;;6224135;28;20125;-73
2022/05/29 01:21:22;;;;;;;;;;;10.20;99.90;;;;;;6222044;28;20135;-73
2022/05/29 01:25:07;;;;;;;18.75;3.63;;;10.20;99.90;;;;;;6219877;28;20016;-74
2022/05/29 01:28:26;;;;;;;13.82;3.10;;;10.20;99.90;;;;;;6220613;28;20121;-73
2022/05/29 01:31:40;;;;;;;14.70;3.67;;;10.20;99.90;;;;;;6221436;28;20053;-73
2022/05/29 01:34:49;;;;;;;13.82;3.55;;;10.30;99.90;;;;;;6216766;28;20172;-73
2022/05/29 01:37:55;;;;;;;16.05;3.28;;;10.30;99.90;;;;;;6222843;28;20046;-72
2022/05/29 01:41:03;;;;;;;12.57;4.10;;;10.30;99.90;;;;;;6218971;28;20037;-72
2022/05/29 01:44:10;;;;;;;17.50;3.88;;;10.30;99.90;;;;;;6213493;28;20156;-71
2022/05/29 01:47:16;;;;;;;14.50;3.75;;;10.30;99.90;;;;;;6217868;28;20426;-71
2022/05/29 01:50:23;;;;;;;16.98;3.83;;;10.30;99.90;;;;;;6214454;28;20127;-73
2022/05/29 01:53:29;;;;;;;14.45;3.38;;;10.40;99.90;;;;;;6220047;28;20458;-72
2022/05/29 01:56:34;;;;;;;12.57;2.97;;;10.50;99.90;;;;;;6215120;28;20042;-73
2022/05/29 01:59:42;;;;;;;13.57;3.70;;;10.60;99.90;;;;;;6214434;28;20046;-73
2022/05/29 02:02:57;;;;;;;13.10;2.78;;;10.60;99.90;;;;;;6204966;28;20154;-72
2022/05/29 02:06:01;;;;;;;14.60;3.15;;;10.50;99.90;;;;;;6220023;28;20503;-73
2022/05/29 02:09:08;;;;;;;13.77;3.45;;;10.70;99.90;;;;;;6213960;28;20046;-73
2022/05/29 02:12:16;;;;;;;16.48;3.30;;;10.70;99.90;;;;;;6220119;28;20119;-73
2022/05/29 02:15:25;;;;;;;11.38;3.40;;;10.60;99.90;;;;;;6220730;28;20499;-72
2022/05/29 02:18:32;;;;;;;12.35;2.97;;;10.70;99.90;;;;;;6220511;28;20080;-73
2022/05/29 02:21:40;;;;;;;20.98;4.38;;;10.60;99.90;;;;;;6208729;28;20181;-73
2022/05/29 02:24:45;;;;;;;34.30;3.95;;;10.70;99.90;;;;;;6220942;28;20488;-73
2022/05/29 02:27:51;;;;;;;16.65;3.88;;;10.60;99.90;;;;;;6218061;28;20473;-73
2022/05/29 02:31:01;;;;;;;21.20;4.97;;;10.50;99.90;;;;;;6219904;28;20539;-78
2022/05/29 02:34:15;;;;;;;19.88;3.75;;;10.40;99.90;;;;;;6219570;28;20049;-72
2022/05/29 02:37:23;;;;;;;17.40;3.83;;;10.40;99.90;;;;;;6220298;28;20558;-71
2022/05/29 02:40:32;;;;;;;20.77;4.10;;;10.40;99.90;;;;;;6220275;28;20085;-72
2022/05/29 02:43:40;;;;;;;21.90;4.38;;;10.40;99.90;;;;;;6216503;28;20503;-71
2022/05/29 02:46:50;;;;;;;20.30;5.13;;;10.60;99.90;;;;;;6219325;28;20129;-71
2022/05/29 02:50:04;;;;;;;16.45;3.85;;;10.50;99.90;;;;;;6216829;28;20531;-73
2022/05/29 02:53:10;;;;;;;17.58;4.35;;;10.40;99.90;;;;;;6220540;28;20046;-72
2022/05/29 02:56:13;;;;;;;20.58;4.25;;;10.30;99.90;;;;;;6218522;28;20173;-73
2022/05/29 02:59:14;;;;;;;19.52;4.45;;;10.20;99.90;;;;;;6206967;28;20173;-73
2022/05/29 03:02:31;;;;;;;16.45;4.05;;;10.20;99.90;;;;;;6216515;28;20093;-72
2022/05/29 03:05:48;;;;;;;13.70;3.80;;;10.20;99.90;;;;;;6218117;28;20184;-72
2022/05/29 03:09:05;;;;;;;14.10;3.45;;;10.10;99.90;;;;;;6220206;28;20553;-73
2022/05/29 03:12:23;;;;;;;13.77;3.65;;;10.10;99.90;;;;;;6222299;28;20050;-73
2022/05/29 03:15:36;;;;;;;18.15;4.20;;;10.10;99.90;;;;;;6219304;28;20116;-73
2022/05/29 03:18:50;;;;;;;15.68;4.22;;;10.10;99.90;;;;;;6212790;28;20132;-72
2022/05/29 03:22:01;;;;;;;19.33;4.40;;;10.00;99.90;;;;;;6219265;28;20045;-73
2022/05/29 03:25:09;;;;;;;22.17;4.18;;;10.00;99.90;;;;;;6210720;28;20130;-73
2022/05/29 03:28:18;;;;;;;18.25;4.35;;;10.00;99.90;;;;;;6220483;28;20598;-72
2022/05/29 03:31:25;;;;;;;16.88;4.18;;;10.00;99.90;;;;;;6220590;28;20073;-73
2022/05/29 03:34:28;;;;;;;13.05;3.58;;;10.10;99.90;;;;;;6209253;28;20161;-72
2022/05/29 03:37:30;;;;;;;16.83;4.10;;;10.20;99.90;;;;;;6213227;28;20050;-72
2022/05/29 03:40:34;;;;;;;18.80;4.13;;;10.20;99.90;;;;;;6212740;28;20524;-73
2022/05/29 03:43:36;;;;;;;16.15;4.55;;;10.20;99.90;;;;;;6218122;28;20120;-72
2022/05/29 03:46:39;;;;;;;16.38;4.25;;;10.30;99.90;;;;;;6220317;28;20808;-72
2022/05/29 03:49:42;;;;;;;15.98;3.50;;;10.20;99.90;;;;;;6218563;28;20049;-74
2022/05/29 03:52:44;;;;;;;19.75;3.85;;;10.20;99.90;;;;;;6223661;28;20049;-73
2022/05/29 03:55:46;;;;;;;16.67;3.45;;;10.30;99.90;;;;;;6225492;28;20049;-73
2022/05/29 03:58:48;;;;;;;17.15;3.92;;;10.20;99.90;;;;;;6220694;28;20050;-73
2022/05/29 04:01:50;;;;;;;17.67;3.70;;;10.20;99.90;;;;;;6214350;28;20050;-73
2022/05/29 04:04:54;;;;;;;19.20;3.63;;;10.20;99.90;;;;;;6224475;28;20050;-73
2022/05/29 04:14:37;;;;;;;21.33;3.90;;;10.10;99.90;;;;;;6222454;28;20062;-74
2022/05/29 04:17:39;;;;;;;17.17;3.13;;;10.00;99.90;;;;;;6224852;28;20049;-74
2022/05/29 04:20:42;;;;;;;21.45;4.10;;;9.90;99.90;;;;;;6222814;28;20141;-73
2022/05/29 04:23:44;;;;;;;21.55;4.15;;;9.90;99.90;;;;;;6222858;28;20534;-74
2022/05/29 04:26:46;;;;;;;17.10;3.22;;;9.80;99.90;;;;;;6225396;28;20100;-74
2022/05/29 04:29:48;;;;;;;15.77;3.55;;;9.80;99.90;;;;;;6221524;28;20057;-74
2022/05/29 04:33:02;;;;;;;16.83;3.50;;;9.80;99.90;;;;;;6223223;28;20133;-73
2022/05/29 04:36:05;;;;;;;16.27;3.13;;;9.80;99.90;;;;;;6222756;28;20050;-73
2022/05/29 04:39:07;;;;;;;20.65;3.85;;;9.80;99.90;;;;;;6219488;28;20104;-73
2022/05/29 04:42:10;;;;;;;15.85;3.38;;;9.80;99.90;;;;;;6220675;28;20124;-73
2022/05/29 04:45:12;;;;;;;18.27;3.17;;;9.80;99.90;;;;;;6218889;28;20053;-73
2022/05/29 04:48:16;;;;;;;15.05;3.25;;;9.90;99.90;;;;;;6222190;28;20575;-73
2022/05/29 04:51:19;;;;;;;17.52;3.40;;;9.90;99.90;;;;;;6213531;28;20038;-73
2022/05/29 04:54:21;;;;;;;17.33;3.05;;;9.90;99.90;;;;;;6224371;28;20551;-72
2022/05/29 04:57:23;;;;;;;21.52;2.90;;;9.90;99.90;;;;;;6221678;28;20052;-72
2022/05/29 05:00:25;;;;;;;15.45;2.92;;;10.00;99.90;;;;;;6219896;28;20041;-73
2022/05/29 05:03:29;;;;;;;9.32;2.08;;;10.00;99.90;;;;;;6220709;28;20045;-72
2022/05/29 05:06:32;;;;;;;14.60;2.38;;;10.10;99.90;;;;;;6222701;28;20533;-71
2022/05/29 05:09:34;;;;;;;13.02;2.92;;;10.10;99.90;;;;;;6213908;28;20085;-72
2022/05/29 05:12:36;;;;;;;12.35;3.03;;;10.00;99.90;;;;;;6210199;28;20071;-72
2022/05/29 05:15:38;;;;;;;17.10;2.90;;;9.90;99.90;;;;;;6223349;28;20125;-72
2022/05/29 05:18:40;;;;;;;13.55;3.05;;;9.90;99.90;;;;;;6220770;28;20144;-73
2022/05/29 05:21:43;;;;;;;15.98;3.42;;;10.00;99.90;;;;;;6222317;28;20046;-72
2022/05/29 05:24:45;;;;;;;;;;;10.10;99.90;;;;;;6223653;28;20196;-72
2022/05/29 05:27:47;;;;;;;18.08;3.45;;;10.10;99.90;;;;;;6221840;28;19928;-72
2022/05/29 05:30:49;;;;;;;18.20;3.78;;;10.20;99.90;;;;;;6220601;28;20572;-73
2022/05/29 05:33:51;;;;;;;17.08;3.10;;;10.20;99.90;;;;;;6222585;28;20201;-73
2022/05/29 05:36:55;;;;;;;16.63;3.10;;;10.20;99.90;;;;;;6221188;28;20096;-72
2022/05/29 05:39:57;;;;;;;;;;;10.30;99.90;;;;;;6220615;28;20104;-72
2022/05/29 05:42:59;;;;;;;20.17;3.35;;;10.30;99.90;;;;;;6205834;28;19921;-73
2022/05/29 05:46:00;;;;;;;23.38;3.17;;;10.30;99.90;;;;;;6216919;28;20069;-73
2022/05/29 05:49:02;;;;;;;19.20;3.05;;;10.30;99.90;;;;;;6219648;28;20524;-72
2022/05/29 08:41:59;;;;;;;9.63;1.60;;;18.90;95.30;;;;;;6317011;28;20639;-64
2022/05/29 08:45:03;;;;;;;6.55;1.48;;;15.80;99.30;;;;;;6289691;28;20068;-63
2022/05/29 08:48:05;;;;;;;9.00;1.60;;;14.50;99.90;;;;;;6295679;28;20101;-63
2022/05/29 08:51:28;;;;;;;8.75;1.58;;;13.70;99.90;;;;;;6126695;28;98496;-63
2022/05/29 08:54:44;;;;;;;8.90;1.80;;;13.10;99.90;;;;;;6265428;28;20076;-63
2022/05/29 09:00:13;;;;;;;7.30;1.70;;;12.60;99.90;;;;;;6305054;27;20127;-64
2022/05/29 09:03:42;;;;;;;8.38;1.92;;;12.10;99.90;;;;;;6307455;28;20415;-64
2022/05/29 09:06:49;;;;;;;15.35;2.22;;;12.00;99.90;;;;;;6314899;28;20048;-64
2022/05/29 09:09:54;;;;;;;9.00;2.25;;;11.90;99.90;;;;;;6310830;28;20048;-63
2022/05/29 09:12:58;;;;;;;8.77;1.52;;;11.70;99.90;;;;;;6308626;28;20515;-64
2022/05/29 09:16:06;;;;;;;9.05;1.70;;;11.60;99.90;;;;;;6314465;28;20611;-64
2022/05/29 09:19:13;;;;;;;12.30;1.45;;;11.60;99.90;;;;;;6308669;28;20058;-64
2022/05/29 09:22:20;;;;;;;12.55;2.38;;;11.70;99.90;;;;;;6308810;28;20037;-64
2022/05/29 09:25:30;;;;;;;11.02;2.05;;;11.80;99.90;;;;;;6305157;28;20416;-63
2022/05/29 09:28:36;;;;;;;8.88;1.75;;;12.00;99.90;;;;;;6313970;28;20052;-64
2022/05/29 09:31:40;;;;;;;8.32;1.83;;;12.00;99.90;;;;;;6315233;28;20444;-64
2022/05/29 09:34:44;;;;;;;9.95;1.60;;;12.10;99.90;;;;;;6271318;28;20474;-63
2022/05/29 09:37:56;;;;;;;8.80;2.13;;;12.00;99.90;;;;;;6278690;28;20488;-63
2022/05/29 09:41:06;;;;;;;7.07;1.70;;;11.90;99.90;;;;;;6265337;28;20057;-63
2022/05/29 09:44:12;;;;;;;5.60;1.40;;;11.90;99.90;;;;;;6289645;28;20056;-64
2022/05/29 09:50:54;;;;;;;6.68;1.02;;;11.90;99.90;;;;;;6291371;28;20044;-63
2022/05/29 09:53:59;;;;;;;8.70;1.48;;;12.00;99.90;;;;;;6290093;28;20342;-63
2022/05/29 09:57:09;;;;;;;9.55;1.52;;;12.10;99.90;;;;;;6298783;28;20423;-64
2022/05/29 10:00:17;;;;;;;9.32;1.70;;;12.10;99.90;;;;;;6315962;28;20101;-63
2022/05/29 10:03:42;;;;;;;8.13;1.50;;;12.20;99.90;;;;;;6307550;28;20056;-64
2022/05/29 10:06:46;;;;;;;9.15;2.00;;;12.30;99.90;;;;;;6308448;28;20048;-63
2022/05/29 10:09:59;;;;;;;11.80;1.55;;;12.40;99.90;;;;;;6257685;28;20399;-63
2022/05/29 10:13:03;;;;;;;10.15;1.63;;;12.40;99.90;;;;;;6278849;28;20417;-63
2022/05/29 10:16:05;;;;;;;15.00;2.10;;;12.30;99.90;;;;;;6260773;28;20045;-64
2022/05/29 10:19:11;;;;;;;7.90;1.70;;;12.40;99.90;;;;;;6276451;28;20044;-64
2022/05/29 10:22:17;;;;;;;9.48;1.50;;;12.40;99.90;;;;;;6274092;28;20049;-64
2022/05/29 10:25:23;;;;;;;9.68;1.67;;;12.40;99.90;;;;;;6278874;28;20122;-63
2022/05/29 10:28:41;;;;;;;10.98;1.70;;;12.30;99.90;;;;;;6290210;28;20048;-64
2022/05/29 10:31:43;;;;;;;7.07;1.63;;;12.20;99.90;;;;;;6281433;28;20795;-64
2022/05/29 10:34:47;;;;;;;6.00;1.57;;;12.10;99.90;;;;;;6275617;28;20080;-63
2022/05/29 10:37:51;;;;;;;7.38;1.40;;;12.10;99.90;;;;;;6274910;28;20048;-63
2022/05/29 10:40:53;;;;;;;;;;;12.10;99.90;;;;;;6278430;28;20048;-63
2022/05/29 10:43:56;;;;;;;7.05;1.73;;;12.20;99.90;;;;;;6197804;28;20300;-63
2022/05/29 10:47:06;;;;;;;8.73;1.50;;;12.20;99.90;;;;;;6209096;28;20144;-63
2022/05/29 10:50:16;;;;;;;8.32;2.03;;;12.30;99.90;;;;;;6214255;28;20061;-63
2022/05/29 10:53:27;;;;;;;7.95;2.30;;;12.30;99.90;;;;;;6215179;28;20385;-63
2022/05/29 10:56:40;;;;;;;13.48;11.10;;;12.40;99.90;;;;;;6199985;28;20045;-64
2022/05/29 10:59:59;;;;;;;12.20;2.03;;;12.40;99.90;;;;;;6196986;28;20431;-64
2022/05/29 11:03:33;;;;;;;10.38;2.05;;;12.40;99.90;;;;;;6209077;28;20517;-63
2022/05/29 11:06:59;;;;;;;10.85;2.33;;;12.40;99.90;;;;;;6200025;28;20042;-63
2022/05/29 11:10:20;;;;;;;6.43;1.50;;;12.40;99.90;;;;;;6198141;28;20407;-63
2022/05/29 11:13:55;;;;;;;7.38;1.88;;;12.30;99.90;;;;;;6212216;28;20054;-63
2022/05/29 11:17:06;;;;;;;9.27;1.70;;;12.40;99.90;;;;;;6173861;28;20504;-63
2022/05/29 11:20:46;;;;;;;10.45;1.83;;;12.50;99.90;;;;;;6196851;28;20407;-63
2022/05/29 11:24:15;;;;;;;7.10;1.55;;;12.60;99.90;;;;;;6211466;28;20043;-63
2022/05/29 11:27:29;;;;;;;7.38;1.63;;;12.80;99.90;;;;;;6198603;28;20047;-63
2022/05/29 11:30:41;;;;;;;10.57;1.58;;;13.00;99.90;;;;;;6199522;28;21918;-63
2022/05/29 11:33:59;;;;;;;8.10;1.50;;;13.10;99.90;;;;;;6208281;28;20053;-64
2022/05/29 11:37:20;;;;;;;6.93;1.38;;;13.20;99.90;;;;;;6209251;28;20089;-63
2022/05/29 11:40:27;;;;;;;8.80;1.80;;;13.30;99.90;;;;;;6198883;28;20408;-63
2022/05/29 11:43:34;;;;;;;11.35;2.05;;;13.30;99.90;;;;;;6217353;28;20054;-63
2022/05/29 11:53:27;;;;;;;10.63;2.00;;;13.10;99.90;;;;;;6220143;28;20062;-63
2022/05/29 11:56:37;;;;;;;9.48;1.77;;;13.10;99.90;;;;;;6218131;28;20483;-63
2022/05/29 11:59:50;;;;;;;11.35;2.22;;;13.20;99.90;;;;;;6239804;28;20137;-63
2022/05/29 12:02:59;;;;;;;10.50;1.77;;;13.20;99.90;;;;;;6243618;28;20482;-64
2022/05/29 12:06:08;;;;;;;15.65;2.15;;;13.20;99.90;;;;;;6226987;28;20055;-64
2022/05/29 12:09:20;;;;;;;9.93;1.73;;;13.10;99.90;;;;;;6239359;28;20053;-64
2022/05/29 12:12:28;;;;;;;7.82;1.90;;;13.10;99.90;;;;;;6226630;28;20597;-63
2022/05/29 12:15:31;;;;;;;14.23;2.13;;;13.00;99.90;;;;;;6214674;28;20399;-64
2022/05/29 12:18:41;;;;;;;9.25;1.70;;;13.00;99.90;;;;;;6216805;28;20132;-61
2022/05/29 12:21:48;;;;;;;13.13;2.03;;;13.10;99.90;;;;;;6221552;28;20053;-63
2022/05/29 12:24:52;;;;;;;12.93;1.75;;;13.10;99.90;;;;;;6233981;28;20053;-63
2022/05/29 12:27:56;;;;;;;;;;;13.10;99.90;;;;;;6222403;28;20058;-63
2022/05/29 12:30:58;;;;;;;;;;;13.10;99.90;;;;;;6222943;28;19928;-63
2022/05/29 12:34:00;;;;;;;51.35;8.13;;;13.10;99.90;;;;;;6222900;28;19922;-64
2022/05/29 12:37:26;;;;;;;10.15;2.65;;;13.00;99.90;;;;;;6223610;28;20037;-63
2022/05/29 12:41:00;;;;;;;10.95;2.65;;;13.00;99.90;;;;;;6224719;28;20145;-64
2022/05/29 12:44:36;;;;;;;12.60;1.85;;;13.10;99.90;;;;;;6226916;28;20073;-62
2022/05/29 12:48:07;;;;;;;9.60;1.50;;;13.20;99.90;;;;;;6223221;28;20049;-63
2022/05/29 12:51:31;;;;;;;13.48;1.63;;;13.00;99.90;;;;;;6215545;28;20056;-63
2022/05/29 12:54:53;;;;;;;9.25;2.20;;;13.10;99.90;;;;;;6218387;28;20045;-63
2022/05/29 12:58:15;;;;;;;10.65;2.00;;;13.20;99.90;;;;;;6222400;28;20064;-63
2022/05/29 13:01:41;;;;;;;10.63;2.00;;;13.20;99.90;;;;;;6229853;28;20050;-63
2022/05/29 13:05:04;;;;;;;12.57;2.00;;;13.10;99.90;;;;;;6222187;28;20045;-63
2022/05/29 13:08:35;;;;;;;14.60;2.95;;;13.00;99.90;;;;;;6240282;28;20061;-63
2022/05/29 13:11:41;;;;;;;12.75;2.10;;;12.90;99.90;;;;;;6223533;28;20544;-62
2022/05/29 13:14:48;;;;;;;12.13;1.90;;;12.80;99.90;;;;;;6240015;28;20049;-63
2022/05/29 13:18:02;;;;;;;11.50;2.28;;;12.70;99.90;;;;;;6206555;28;20045;-63
2022/05/29 13:21:06;;;;;;;;;;;12.80;99.90;;;;;;6223244;28;20054;-63
2022/05/29 13:24:17;;;;;;;19.60;4.50;;;12.70;99.90;;;;;;6228405;28;19951;-63
2022/05/29 13:27:33;;;;;;;12.57;3.38;;;12.40;99.90;;;;;;6231985;28;21175;-63
2022/05/29 13:31:12;;;;;;;13.30;2.45;;;12.30;99.90;;;;;;6236157;28;20057;-63
2022/05/29 13:34:30;;;;;;;39.63;2.80;;;12.20;99.90;;;;;;6205105;28;20112;-63
2022/05/29 13:37:43;;;;;;;7.75;1.92;;;12.30;99.90;;;;;;6220123;28;20057;-62
2022/05/29 13:40:48;;;;;;;10.50;1.85;;;12.30;99.90;;;;;;6240451;28;20569;-63
2022/05/29 13:43:50;;;;;;;9.25;1.90;;;12.30;99.90;;;;;;6242904;28;20056;-63
2022/05/29 13:47:42;;;;;;;9.20;2.72;;;12.30;99.90;;;;;;6227340;28;20046;-62
2022/05/29 13:50:51;;;;;;;12.77;2.33;;;12.30;99.90;;;;;;6254957;28;20044;-63
2022/05/29 13:54:03;;;;;;;12.82;2.42;;;12.50;99.90;;;;;;6252495;28;20036;-63
2022/05/29 13:57:09;;;;;;;10.73;1.77;;;12.50;99.90;;;;;;6240415;28;20055;-63
2022/05/29 14:07:18;;;;;;;7.63;2.10;;;12.90;99.90;;;;;;6213261;28;20451;-62
2022/05/29 14:10:29;;;;;;;9.18;1.98;;;13.10;99.90;;;;;;6265362;28;20060;-63
2022/05/29 14:13:34;;;;;;;9.32;1.92;;;13.50;99.90;;;;;;6260964;28;20049;-62
2022/05/29 14:16:41;;;;;;;10.55;1.80;;;13.70;99.90;;;;;;6225663;28;20475;-62
2022/05/29 14:20:10;;;;;;;10.77;2.03;;;13.60;99.90;;;;;;6267142;28;20132;-62
2022/05/29 14:23:35;;;;;;;12.68;2.00;;;13.20;99.90;;;;;;6233457;28;20049;-63
2022/05/29 14:26:58;;;;;;;8.52;1.88;;;12.90;99.90;;;;;;6241504;28;20061;-62
2022/05/29 14:30:19;;;;;;;13.13;2.17;;;12.80;99.90;;;;;;6228110;28;20179;-63
2022/05/29 14:33:40;;;;;;;12.57;3.45;;;12.90;99.90;;;;;;6232290;28;20045;-63
2022/05/29 14:36:55;;;;;;;10.90;2.03;;;12.80;99.90;;;;;;6250916;28;20052;-63
2022/05/29 14:40:04;;;;;;;8.65;3.03;;;12.70;99.90;;;;;;6236362;28;20076;-62
2022/05/29 14:43:11;;;;;;;12.85;1.95;;;12.60;99.90;;;;;;6206852;28;20056;-62
2022/05/29 14:46:22;;;;;;;12.38;2.40;;;12.70;99.90;;;;;;6240252;28;20049;-64
2022/05/29 14:49:27;;;;;;;10.90;1.83;;;12.60;99.90;;;;;;6262996;28;20041;-66
2022/05/29 14:52:39;;;;;;;10.95;2.00;;;12.60;99.90;;;;;;6251994;28;20413;-62
2022/05/29 14:55:46;;;;;;;11.52;1.67;;;12.60;99.90;;;;;;6265556;28;20071;-68
2022/05/29 14:58:48;;;;;;;12.43;2.20;;;12.40;99.90;;;;;;6242049;28;20056;-72
2022/05/29 15:01:54;;;;;;;12.35;2.97;;;12.40;99.90;;;;;;6243868;28;20171;-63
2022/05/29 15:05:03;;;;;;;10.10;1.80;;;12.40;99.90;;;;;;6249248;28;20429;-70
2022/05/29 15:11:37;;;;;;;11.75;2.15;;;12.30;99.90;;;;;;6265371;28;20414;-71
2022/05/29 15:14:39;;;;;;;15.15;2.67;;;12.30;99.90;;;;;;6217894;28;20060;-70
2022/05/29 15:17:40;;;;;;;17.33;2.60;;;12.20;99.90;;;;;;6536139;23;20056;-79
2022/05/29 15:24:25;;;;;;;11.15;2.15;;;12.20;99.90;;;;;;6239200;28;20072;-77
2022/05/29 15:27:28;;;;;;;14.25;2.95;;;12.20;99.90;;;;;;6247134;28;20053;-78
2022/05/29 15:30:30;;;;;;;18.90;2.88;;;12.20;99.90;;;;;;6243227;28;20060;-78
2022/05/29 15:33:41;;;;;;;15.95;2.60;;;12.30;99.90;;;;;;6234781;28;20563;-78
2022/05/29 15:36:51;;;;;;;17.20;2.40;;;12.30;99.90;;;;;;6236806;28;20049;-77
2022/05/29 15:39:58;;;;;;;10.77;2.05;;;12.20;99.90;;;;;;6210104;28;20053;-78
2022/05/29 15:43:23;;;;;;;14.65;2.50;;;12.00;99.90;;;;;;6228178;28;20054;-77
2022/05/29 15:46:34;;;;;;;12.23;2.13;;;11.70;99.90;;;;;;6242036;28;20049;-77
2022/05/29 15:50:09;;;;;;;11.40;2.38;;;11.60;99.90;;;;;;6241102;28;20079;-80
2022/05/29 15:57:46;;;;;;;14.98;2.40;;;11.30;99.90;;;;;;6232275;28;20049;-79
2022/05/29 16:01:08;;;;;;;13.18;2.10;;;11.20;99.90;;;;;;6224004;28;20072;-79
2022/05/29 16:04:38;;;;;;;13.30;2.83;;;11.20;99.90;;;;;;6226825;28;20139;-79
2022/05/29 16:07:42;;;;;;;19.45;2.60;;;11.10;99.90;;;;;;6209332;28;20053;-79
2022/05/29 16:10:44;;;;;;;13.55;2.42;;;11.20;99.90;;;;;;6246529;28;20041;-81
2022/05/29 16:13:48;;;;;;;19.50;3.08;;;11.20;99.90;;;;;;6241759;28;20041;-81
2022/05/29 16:17:04;;;;;;;14.13;2.05;;;11.30;99.90;;;;;;6225880;28;20141;-80
2022/05/29 16:20:13;;;;;;;10.25;2.13;;;11.40;99.90;;;;;;6224853;28;20417;-81
2022/05/29 16:23:23;;;;;;;13.75;2.05;;;11.50;99.90;;;;;;6240751;28;20595;-83
2022/05/29 16:26:34;;;;;;;16.38;2.42;;;11.70;99.90;;;;;;6245554;28;20068;-84
2022/05/29 16:29:43;;;;;;;14.05;2.47;;;11.60;99.90;;;;;;6223407;28;20421;-84
2022/05/29 16:33:12;;;;;;;16.27;2.63;;;11.50;99.90;;;;;;6243567;28;20199;-76
2022/05/29 16:51:28;;;;;;;31.85;15.02;;;11.40;99.90;;;;;;6219511;28;20061;-77
2022/05/29 16:54:33;;;;;;;33.85;14.35;;;11.40;99.90;;;;;;6239412;28;20045;-77
2022/05/29 17:05:40;;;;;;;20.20;5.78;;;11.20;99.90;;;;;;6310295;22;20509;-75
2022/05/29 17:08:50;;;;;;;103.65;57.15;;;11.20;99.90;;;;;;6286173;28;20052;-77
2022/05/29 17:11:53;;;;;;;15.68;2.75;;;11.30;99.90;;;;;;6275962;28;20071;-75
2022/05/29 17:14:57;;;;;;;14.73;3.13;;;11.30;99.90;;;;;;6295329;28;20056;-77
2022/05/29 17:18:00;;;;;;;13.25;3.72;;;11.30;99.90;;;;;;6289414;28;20067;-79
2022/05/29 17:25:28;;;;;;;16.55;2.42;;;11.50;99.90;;;;;;6281484;28;20048;-78
2022/05/29 17:28:54;;;;;;;15.77;2.47;;;11.50;99.90;;;;;;6282092;28;20147;-75
2022/05/29 17:32:03;;;;;;;12.23;2.50;;;11.60;99.90;;;;;;6299631;28;20513;-78
2022/05/29 17:40:48;;;;;;;18.33;8.82;;;11.70;99.90;;;;;;6299140;23;20054;-77
2022/05/29 17:44:09;;;;;;;18.83;4.57;;;11.70;99.90;;;;;;6193903;28;20954;-73
2022/05/29 17:47:39;;;;;;;13.38;1.85;;;11.70;99.90;;;;;;6190440;28;20057;-73
2022/05/29 17:55:08;;;;;;;15.73;2.33;;;11.70;99.90;;;;;;6379914;23;20127;-78
2022/05/29 17:58:20;;;;;;;12.07;2.33;;;11.60;99.90;;;;;;6277037;28;20052;-75
2022/05/29 18:01:45;;;;;;;12.13;2.20;;;11.60;99.90;;;;;;6296645;28;20048;-74
2022/05/29 18:04:58;;;;;;;11.18;1.90;;;11.50;99.90;;;;;;6266712;28;20057;-76
2022/05/29 18:08:11;;;;;;;11.65;2.40;;;11.50;99.90;;;;;;6287344;28;20146;-72
2022/05/29 18:11:24;;;;;;;13.25;2.13;;;11.40;99.90;;;;;;6280933;28;20184;-74
2022/05/29 18:14:34;;;;;;;;;;;11.50;99.90;;;;;;6195759;28;20148;-71
2022/05/29 18:18:09;;;;;;;10.20;1.80;;;11.40;99.90;;;;;;6307030;28;19920;-71
2022/05/29 18:21:30;;;;;;;14.85;4.03;;;11.30;99.90;;;;;;6317687;28;20045;-71
2022/05/29 18:24:52;;;;;;;11.75;2.38;;;11.20;99.90;;;;;;6268221;28;20053;-71
2022/05/29 18:28:11;;;;;;;11.13;2.33;;;11.20;99.90;;;;;;6302171;28;20495;-72
2022/05/29 18:31:18;;;;;;;16.27;4.03;;;11.20;99.90;;;;;;6299512;28;20052;-71
2022/05/29 18:34:52;;;;;;;11.52;2.95;;;11.20;99.90;;;;;;6315433;28;20546;-74
2022/05/29 18:38:02;;;;;;;;;;;11.10;99.90;;;;;;6269488;28;20557;-72
2022/05/29 18:41:13;;;;;;;14.43;2.83;;;11.00;99.90;;;;;;6306548;28;19920;-76
2022/05/29 18:44:25;;;;;;;10.68;2.55;;;11.00;99.90;;;;;;6313545;28;20052;-71
2022/05/29 18:47:36;;;;;;;16.17;2.42;;;10.90;99.90;;;;;;6294920;28;20056;-71
2022/05/29 18:50:59;;;;;;;10.68;2.00;;;10.80;99.90;;;;;;6313255;28;20058;-72
2022/05/29 18:54:11;;;;;;;15.40;2.50;;;10.80;99.90;;;;;;6322070;28;20071;-74
2022/05/29 18:57:23;;;;;;;14.95;2.88;;;10.80;99.90;;;;;;6301051;28;20045;-69
2022/05/29 19:00:34;;;;;;;13.82;2.22;;;10.80;99.90;;;;;;6296014;28;20039;-72
2022/05/29 19:03:51;;;;;;;283.58;127.70;;;10.70;99.90;;;;;;6282959;28;20048;-71
2022/05/29 19:07:17;;;;;;;14.63;3.17;;;10.70;99.90;;;;;;6278311;28;20067;-72
2022/05/29 19:10:34;;;;;;;15.57;3.83;;;10.70;99.90;;;;;;6314215;28;20047;-70
2022/05/29 19:13:49;;;;;;;11.88;2.05;;;10.70;99.90;;;;;;6284407;28;20401;-70
2022/05/29 19:17:00;;;;;;;16.80;3.25;;;10.70;99.90;;;;;;6299015;28;20412;-71
2022/05/29 19:20:16;;;;;;;12.30;2.58;;;10.70;99.90;;;;;;6292864;28;20057;-71
2022/05/29 19:26:29;;;;;;;9.07;2.08;;;10.70;99.90;;;;;;6276358;28;20048;-70
2022/05/29 19:29:31;;;;;;;8.40;2.03;;;10.70;99.90;;;;;;6303081;28;20055;-70
2022/05/29 19:32:33;;;;;;;11.10;1.92;;;10.70;99.90;;;;;;6301935;28;20048;-71
2022/05/29 19:35:36;;;;;;;14.45;2.03;;;10.70;99.90;;;;;;6315931;28;20048;-73
2022/05/29 19:38:44;;;;;;;11.50;2.03;;;10.70;99.90;;;;;;6290158;28;20056;-71
2022/05/29 19:41:47;;;;;;;12.02;2.10;;;10.70;99.90;;;;;;6301320;28;20052;-72
2022/05/29 19:44:49;;;;;;;12.50;1.80;;;10.70;99.90;;;;;;6295917;28;20052;-72
2022/05/29 19:47:52;;;;;;;13.10;1.75;;;10.70;99.90;;;;;;6263789;28;20052;-71
2022/05/29 19:50:55;;;;;;;12.27;1.80;;;10.60;99.90;;;;;;6307089;28;20402;-71
2022/05/29 19:53:58;;;;;;;11.48;1.92;;;10.60;99.90;;;;;;6293663;28;20063;-72
2022/05/29 19:57:05;;;;;;;11.30;1.70;;;10.60;99.90;;;;;;6294619;28;20055;-72
2022/05/29 20:00:08;;;;;;;10.23;1.58;;;10.60;99.90;;;;;;6286649;28;20094;-73
2022/05/29 20:03:10;;;;;;;8.77;1.77;;;10.60;99.90;;;;;;6289462;28;20048;-72
2022/05/29 20:06:18;;;;;;;8.98;1.45;;;10.60;99.90;;;;;;6303174;28;20123;-72
2022/05/29 20:09:24;;;;;;;8.38;1.48;;;10.60;99.90;;;;;;6294332;28;20103;-73
2022/05/29 20:12:30;;;;;;;7.50;1.55;;;10.60;99.90;;;;;;6273077;28;20052;-72
2022/05/29 20:15:38;;;;;;;10.77;2.63;;;10.60;99.90;;;;;;6280858;28;20045;-73
2022/05/29 20:18:42;;;;;;;10.23;2.30;;;10.60;99.90;;;;;;6268736;28;20567;-72
2022/05/29 20:21:48;;;;;;;10.60;1.70;;;10.60;99.90;;;;;;6258212;28;20098;-72
2022/05/29 20:24:54;;;;;;;6.90;1.90;;;10.60;99.90;;;;;;6275360;28;20410;-72
2022/05/29 20:27:59;;;;;;;11.10;2.40;;;10.60;99.90;;;;;;6268733;28;20182;-72
2022/05/29 20:31:02;;;;;;;10.85;1.90;;;10.60;99.90;;;;;;6268039;28;20041;-72